sensor_id;sensor_type;location;lat;lon;timestamp;pressure;altitude;pressure_sealevel;temperature
74485;BMP280;62942;52.462;10.846;2023-07-02T00:00:15;99720;;;
74485;BMP280;62942;52.462;10.846;2023-07-02T00:01:15;99730;;;
74485;BMP280;62942;52.462;10.846;2023-07-02T00:02:15;99730;;;
74485;BMP280;62942;52.462;10.846;2023-07-02T00:03:25;99730;;;
74485;BMP280;62942;52.462;10.846;2023-07-02T00:04:35;99730;;;
74485;BMP280;62942;52.462;10.846;2023-07-02T00:05:35;99730;;;
74485;BMP280;62942;52.462;10.846;2023-07-02T00:06:45;99730;;;
74485;BMP280;62942;52.462;10.846;2023-07-02T00:07:45;99720;;;
74485;BMP280;62942;52.462;10.846;2023-07-02T00:08:55;99730;;;
74485;BMP280;62942;52.462;10.846;2023-07-02T00:10:05;99730;;;
74485;BMP280;62942;52.462;10.846;2023-07-02T00:11:05;99720;;;
74485;BMP280;62942;52.462;10.846;2023-07-02T00:12:15;99720;;;
74485;BMP280;62942;52.462;10.846;2023-07-02T00:13:15;99720;;;
74485;BMP280;62942;52.462;10.846;2023-07-02T00:14:25;99720;;;
74485;BMP280;62942;52.462;10.846;2023-07-02T00:15:35;99720;;;
74485;BMP280;62942;52.462;10.846;2023-07-02T00:16:45;99720;;;
74485;BMP280;62942;52.462;10.846;2023-07-02T00:17:45;99720;;;
74485;BMP280;62942;52.462;10.846;2023-07-02T00:18:45;99710;;;
74485;BMP280;62942;52.462;10.846;2023-07-02T00:19:55;99720;;;
74485;BMP280;62942;52.462;10.846;2023-07-02T00:21:05;99720;;;
74485;BMP280;62942;52.462;10.846;2023-07-02T00:22:05;99720;;;
74485;BMP280;62942;52.462;10.846;2023-07-02T00:23:15;99720;;;
74485;BMP280;62942;52.462;10.846;2023-07-02T00:24:15;99720;;;
74485;BMP280;62942;52.462;10.846;2023-07-02T00:25:25;99720;;;
74485;BMP280;62942;52.462;10.846;2023-07-02T00:26:36;99720;;;
74485;BMP280;62942;52.462;10.846;2023-07-02T00:27:35;99710;;;
74485;BMP280;62942;52.462;10.846;2023-07-02T00:28:35;99710;;;
74485;BMP280;62942;52.462;10.846;2023-07-02T00:29:45;99710;;;
74485;BMP280;62942;52.462;10.846;2023-07-02T00:30:45;99710;;;
74485;BMP280;62942;52.462;10.846;2023-07-02T00:31:57;99720;;;
74485;BMP280;62942;52.462;10.846;2023-07-02T00:33:05;99720;;;
74485;BMP280;62942;52.462;10.846;2023-07-02T00:34:15;99720;;;
74485;BMP280;62942;52.462;10.846;2023-07-02T00:35:25;99720;;;
74485;BMP280;62942;52.462;10.846;2023-07-02T00:36:35;99720;;;
74485;BMP280;62942;52.462;10.846;2023-07-02T00:37:45;99720;;;
74485;BMP280;62942;52.462;10.846;2023-07-02T00:38:46;99720;;;
74485;BMP280;62942;52.462;10.846;2023-07-02T00:39:45;99720;;;
74485;BMP280;62942;52.462;10.846;2023-07-02T00:40:45;99720;;;
74485;BMP280;62942;52.462;10.846;2023-07-02T00:41:59;99720;;;
74485;BMP280;62942;52.462;10.846;2023-07-02T00:42:55;99720;;;
74485;BMP280;62942;52.462;10.846;2023-07-02T00:43:55;99720;;;
74485;BMP280;62942;52.462;10.846;2023-07-02T00:44:55;99720;;;
74485;BMP280;62942;52.462;10.846;2023-07-02T00:45:55;99720;;;
74485;BMP280;62942;52.462;10.846;2023-07-02T00:47:05;99720;;;
74485;BMP280;62942;52.462;10.846;2023-07-02T00:48:15;99720;;;
74485;BMP280;62942;52.462;10.846;2023-07-02T00:49:25;99720;;;
74485;BMP280;62942;52.462;10.846;2023-07-02T00:50:25;99720;;;
74485;BMP280;62942;52.462;10.846;2023-07-02T00:51:26;99720;;;
74485;BMP280;62942;52.462;10.846;2023-07-02T00:52:35;99710;;;
74485;BMP280;62942;52.462;10.846;2023-07-02T00:53:35;99710;;;
74485;BMP280;62942;52.462;10.846;2023-07-02T00:54:45;99700;;;
74485;BMP280;62942;52.462;10.846;2023-07-02T00:55:55;99710;;;
74485;BMP280;62942;52.462;10.846;2023-07-02T00:56:55;99710;;;
74485;BMP280;62942;52.462;10.846;2023-07-02T00:57:55;99710;;;
74485;BMP280;62942;52.462;10.846;2023-07-02T00:59:05;99700;;;
74485;BMP280;62942;52.462;10.846;2023-07-02T01:00:06;99710;;;
74485;BMP280;62942;52.462;10.846;2023-07-02T01:01:16;99710;;;
74485;BMP280;62942;52.462;10.846;2023-07-02T01:02:15;99710;;;
74485;BMP280;62942;52.462;10.846;2023-07-02T01:03:16;99690;;;
74485;BMP280;62942;52.462;10.846;2023-07-02T01:04:25;99700;;;
74485;BMP280;62942;52.462;10.846;2023-07-02T01:05:35;99690;;;
74485;BMP280;62942;52.462;10.846;2023-07-02T01:06:45;99700;;;
74485;BMP280;62942;52.462;10.846;2023-07-02T01:07:45;99690;;;
74485;BMP280;62942;52.462;10.846;2023-07-02T01:08:47;99690;;;
74485;BMP280;62942;52.462;10.846;2023-07-02T01:09:55;99680;;;
74485;BMP280;62942;52.462;10.846;2023-07-02T01:11:05;99680;;;
74485;BMP280;62942;52.462;10.846;2023-07-02T01:12:06;99690;;;
74485;BMP280;62942;52.462;10.846;2023-07-02T01:13:16;99700;;;
74485;BMP280;62942;52.462;10.846;2023-07-02T01:14:16;99700;;;
74485;BMP280;62942;52.462;10.846;2023-07-02T01:15:25;99700;;;
74485;BMP280;62942;52.462;10.846;2023-07-02T01:16:25;99700;;;
74485;BMP280;62942;52.462;10.846;2023-07-02T01:17:35;99700;;;
74485;BMP280;62942;52.462;10.846;2023-07-02T01:18:45;99710;;;
74485;BMP280;62942;52.462;10.846;2023-07-02T01:19:46;99700;;;
74485;BMP280;62942;52.462;10.846;2023-07-02T01:20:55;99700;;;
74485;BMP280;62942;52.462;10.846;2023-07-02T01:22:06;99710;;;
74485;BMP280;62942;52.462;10.846;2023-07-02T01:23:15;99710;;;
74485;BMP280;62942;52.462;10.846;2023-07-02T01:24:15;99710;;;
74485;BMP280;62942;52.462;10.846;2023-07-02T01:25:25;99710;;;
74485;BMP280;62942;52.462;10.846;2023-07-02T01:26:26;99720;;;
74485;BMP280;62942;52.462;10.846;2023-07-02T01:27:35;99710;;;
74485;BMP280;62942;52.462;10.846;2023-07-02T01:28:35;99710;;;
74485;BMP280;62942;52.462;10.846;2023-07-02T01:29:45;99710;;;
74485;BMP280;62942;52.462;10.846;2023-07-02T01:30:55;99710;;;
74485;BMP280;62942;52.462;10.846;2023-07-02T01:31:55;99720;;;
74485;BMP280;62942;52.462;10.846;2023-07-02T01:33:05;99710;;;
74485;BMP280;62942;52.462;10.846;2023-07-02T01:34:15;99720;;;
74485;BMP280;62942;52.462;10.846;2023-07-02T01:35:25;99720;;;
74485;BMP280;62942;52.462;10.846;2023-07-02T01:36:35;99720;;;
74485;BMP280;62942;52.462;10.846;2023-07-02T01:37:35;99720;;;
74485;BMP280;62942;52.462;10.846;2023-07-02T01:38:45;99710;;;
74485;BMP280;62942;52.462;10.846;2023-07-02T01:39:55;99720;;;
74485;BMP280;62942;52.462;10.846;2023-07-02T01:41:05;99710;;;
74485;BMP280;62942;52.462;10.846;2023-07-02T01:42:07;99720;;;
74485;BMP280;62942;52.462;10.846;2023-07-02T01:43:15;99720;;;
74485;BMP280;62942;52.462;10.846;2023-07-02T01:44:25;99720;;;
74485;BMP280;62942;52.462;10.846;2023-07-02T01:45:25;99720;;;
74485;BMP280;62942;52.462;10.846;2023-07-02T01:46:35;99720;;;
74485;BMP280;62942;52.462;10.846;2023-07-02T01:47:45;99720;;;
74485;BMP280;62942;52.462;10.846;2023-07-02T01:48:45;99710;;;
74485;BMP280;62942;52.462;10.846;2023-07-02T01:49:55;99720;;;
74485;BMP280;62942;52.462;10.846;2023-07-02T01:51:05;99720;;;
74485;BMP280;62942;52.462;10.846;2023-07-02T01:52:15;99720;;;
74485;BMP280;62942;52.462;10.846;2023-07-02T01:53:25;99730;;;
74485;BMP280;62942;52.462;10.846;2023-07-02T01:54:27;99720;;;
74485;BMP280;62942;52.462;10.846;2023-07-02T01:55:35;99730;;;
74485;BMP280;62942;52.462;10.846;2023-07-02T01:56:35;99710;;;
74485;BMP280;62942;52.462;10.846;2023-07-02T01:57:35;99730;;;
74485;BMP280;62942;52.462;10.846;2023-07-02T01:58:45;99720;;;
74485;BMP280;62942;52.462;10.846;2023-07-02T01:59:55;99720;;;
74485;BMP280;62942;52.462;10.846;2023-07-02T02:00:55;99720;;;
74485;BMP280;62942;52.462;10.846;2023-07-02T02:01:55;99720;;;
74485;BMP280;62942;52.462;10.846;2023-07-02T02:03:05;99720;;;
74485;BMP280;62942;52.462;10.846;2023-07-02T02:04:05;99720;;;
74485;BMP280;62942;52.462;10.846;2023-07-02T02:05:05;99720;;;
74485;BMP280;62942;52.462;10.846;2023-07-02T02:06:15;99720;;;
74485;BMP280;62942;52.462;10.846;2023-07-02T02:07:15;99720;;;
74485;BMP280;62942;52.462;10.846;2023-07-02T02:08:15;99720;;;
74485;BMP280;62942;52.462;10.846;2023-07-02T02:09:25;99720;;;
74485;BMP280;62942;52.462;10.846;2023-07-02T02:10:25;99720;;;
74485;BMP280;62942;52.462;10.846;2023-07-02T02:11:37;99730;;;
74485;BMP280;62942;52.462;10.846;2023-07-02T02:12:35;99720;;;
74485;BMP280;62942;52.462;10.846;2023-07-02T02:13:35;99720;;;
74485;BMP280;62942;52.462;10.846;2023-07-02T02:14:45;99720;;;
74485;BMP280;62942;52.462;10.846;2023-07-02T02:15:55;99720;;;
74485;BMP280;62942;52.462;10.846;2023-07-02T02:16:55;99710;;;
74485;BMP280;62942;52.462;10.846;2023-07-02T02:17:55;99710;;;
74485;BMP280;62942;52.462;10.846;2023-07-02T02:19:05;99710;;;
74485;BMP280;62942;52.462;10.846;2023-07-02T02:20:15;99710;;;
74485;BMP280;62942;52.462;10.846;2023-07-02T02:21:15;99710;;;
74485;BMP280;62942;52.462;10.846;2023-07-02T02:22:25;99710;;;
74485;BMP280;62942;52.462;10.846;2023-07-02T02:23:35;99710;;;
74485;BMP280;62942;52.462;10.846;2023-07-02T02:24:35;99710;;;
74485;BMP280;62942;52.462;10.846;2023-07-02T02:25:35;99710;;;
74485;BMP280;62942;52.462;10.846;2023-07-02T02:26:35;99710;;;
74485;BMP280;62942;52.462;10.846;2023-07-02T02:27:35;99720;;;
74485;BMP280;62942;52.462;10.846;2023-07-02T02:28:35;99720;;;
74485;BMP280;62942;52.462;10.846;2023-07-02T02:29:45;99730;;;
74485;BMP280;62942;52.462;10.846;2023-07-02T02:30:45;99720;;;
74485;BMP280;62942;52.462;10.846;2023-07-02T02:31:55;99720;;;
74485;BMP280;62942;52.462;10.846;2023-07-02T02:32:55;99730;;;
74485;BMP280;62942;52.462;10.846;2023-07-02T02:34:05;99720;;;
74485;BMP280;62942;52.462;10.846;2023-07-02T02:35:05;99730;;;
74485;BMP280;62942;52.462;10.846;2023-07-02T02:36:15;99730;;;
74485;BMP280;62942;52.462;10.846;2023-07-02T02:37:25;99730;;;
74485;BMP280;62942;52.462;10.846;2023-07-02T02:38:25;99720;;;
74485;BMP280;62942;52.462;10.846;2023-07-02T02:39:35;99730;;;
74485;BMP280;62942;52.462;10.846;2023-07-02T02:40:45;99730;;;
74485;BMP280;62942;52.462;10.846;2023-07-02T02:41:55;99730;;;
74485;BMP280;62942;52.462;10.846;2023-07-02T02:43:05;99730;;;
74485;BMP280;62942;52.462;10.846;2023-07-02T02:44:15;99730;;;
74485;BMP280;62942;52.462;10.846;2023-07-02T02:45:25;99730;;;
74485;BMP280;62942;52.462;10.846;2023-07-02T02:46:25;99740;;;
74485;BMP280;62942;52.462;10.846;2023-07-02T02:47:25;99730;;;
74485;BMP280;62942;52.462;10.846;2023-07-02T02:48:35;99730;;;
74485;BMP280;62942;52.462;10.846;2023-07-02T02:49:36;99740;;;
74485;BMP280;62942;52.462;10.846;2023-07-02T02:50:45;99750;;;
74485;BMP280;62942;52.462;10.846;2023-07-02T02:51:55;99740;;;
74485;BMP280;62942;52.462;10.846;2023-07-02T02:53:05;99740;;;
74485;BMP280;62942;52.462;10.846;2023-07-02T02:54:05;99750;;;
74485;BMP280;62942;52.462;10.846;2023-07-02T02:55:06;99740;;;
74485;BMP280;62942;52.462;10.846;2023-07-02T02:56:05;99740;;;
74485;BMP280;62942;52.462;10.846;2023-07-02T02:57:15;99750;;;
74485;BMP280;62942;52.462;10.846;2023-07-02T02:58:25;99750;;;
74485;BMP280;62942;52.462;10.846;2023-07-02T02:59:35;99740;;;
74485;BMP280;62942;52.462;10.846;2023-07-02T03:00:35;99730;;;
74485;BMP280;62942;52.462;10.846;2023-07-02T03:01:45;99740;;;
74485;BMP280;62942;52.462;10.846;2023-07-02T03:02:45;99750;;;
74485;BMP280;62942;52.462;10.846;2023-07-02T03:03:45;99750;;;
74485;BMP280;62942;52.462;10.846;2023-07-02T03:04:55;99750;;;
74485;BMP280;62942;52.462;10.846;2023-07-02T03:05:55;99750;;;
74485;BMP280;62942;52.462;10.846;2023-07-02T03:06:55;99760;;;
74485;BMP280;62942;52.462;10.846;2023-07-02T03:07:55;99750;;;
74485;BMP280;62942;52.462;10.846;2023-07-02T03:09:05;99750;;;
74485;BMP280;62942;52.462;10.846;2023-07-02T03:10:15;99750;;;
74485;BMP280;62942;52.462;10.846;2023-07-02T03:11:15;99750;;;
74485;BMP280;62942;52.462;10.846;2023-07-02T03:12:15;99750;;;
74485;BMP280;62942;52.462;10.846;2023-07-02T03:13:15;99750;;;
74485;BMP280;62942;52.462;10.846;2023-07-02T03:14:25;99760;;;
74485;BMP280;62942;52.462;10.846;2023-07-02T03:15:25;99750;;;
74485;BMP280;62942;52.462;10.846;2023-07-02T03:16:25;99750;;;
74485;BMP280;62942;52.462;10.846;2023-07-02T03:17:35;99750;;;
74485;BMP280;62942;52.462;10.846;2023-07-02T03:18:45;99750;;;
74485;BMP280;62942;52.462;10.846;2023-07-02T03:19:55;99750;;;
74485;BMP280;62942;52.462;10.846;2023-07-02T03:21:05;99750;;;
74485;BMP280;62942;52.462;10.846;2023-07-02T03:22:15;99750;;;
74485;BMP280;62942;52.462;10.846;2023-07-02T03:23:15;99750;;;
74485;BMP280;62942;52.462;10.846;2023-07-02T03:24:25;99750;;;
74485;BMP280;62942;52.462;10.846;2023-07-02T03:25:25;99750;;;
74485;BMP280;62942;52.462;10.846;2023-07-02T03:26:35;99740;;;
74485;BMP280;62942;52.462;10.846;2023-07-02T03:27:35;99730;;;
74485;BMP280;62942;52.462;10.846;2023-07-02T03:28:45;99730;;;
74485;BMP280;62942;52.462;10.846;2023-07-02T03:29:55;99740;;;
74485;BMP280;62942;52.462;10.846;2023-07-02T03:30:55;99740;;;
74485;BMP280;62942;52.462;10.846;2023-07-02T03:32:05;99740;;;
74485;BMP280;62942;52.462;10.846;2023-07-02T03:33:15;99740;;;
74485;BMP280;62942;52.462;10.846;2023-07-02T03:34:25;99730;;;
74485;BMP280;62942;52.462;10.846;2023-07-02T03:35:35;99730;;;
74485;BMP280;62942;52.462;10.846;2023-07-02T03:36:45;99730;;;
74485;BMP280;62942;52.462;10.846;2023-07-02T03:37:55;99730;;;
74485;BMP280;62942;52.462;10.846;2023-07-02T03:38:55;99730;;;
74485;BMP280;62942;52.462;10.846;2023-07-02T03:39:55;99730;;;
74485;BMP280;62942;52.462;10.846;2023-07-02T03:41:05;99730;;;
74485;BMP280;62942;52.462;10.846;2023-07-02T03:42:15;99730;;;
74485;BMP280;62942;52.462;10.846;2023-07-02T03:43:15;99740;;;
74485;BMP280;62942;52.462;10.846;2023-07-02T03:44:25;99730;;;
74485;BMP280;62942;52.462;10.846;2023-07-02T03:45:25;99730;;;
74485;BMP280;62942;52.462;10.846;2023-07-02T03:46:35;99740;;;
74485;BMP280;62942;52.462;10.846;2023-07-02T03:47:35;99740;;;
74485;BMP280;62942;52.462;10.846;2023-07-02T03:48:45;99740;;;
74485;BMP280;62942;52.462;10.846;2023-07-02T03:49:55;99740;;;
74485;BMP280;62942;52.462;10.846;2023-07-02T03:51:05;99740;;;
74485;BMP280;62942;52.462;10.846;2023-07-02T03:52:05;99740;;;
74485;BMP280;62942;52.462;10.846;2023-07-02T03:53:15;99750;;;
74485;BMP280;62942;52.462;10.846;2023-07-02T03:54:15;99750;;;
74485;BMP280;62942;52.462;10.846;2023-07-02T03:55:25;99760;;;
74485;BMP280;62942;52.462;10.846;2023-07-02T03:56:35;99750;;;
74485;BMP280;62942;52.462;10.846;2023-07-02T03:57:35;99750;;;
74485;BMP280;62942;52.462;10.846;2023-07-02T03:58:45;99760;;;
74485;BMP280;62942;52.462;10.846;2023-07-02T03:59:45;99760;;;
74485;BMP280;62942;52.462;10.846;2023-07-02T04:00:45;99760;;;
74485;BMP280;62942;52.462;10.846;2023-07-02T04:01:55;99760;;;
74485;BMP280;62942;52.462;10.846;2023-07-02T04:02:55;99760;;;
74485;BMP280;62942;52.462;10.846;2023-07-02T04:04:05;99760;;;
74485;BMP280;62942;52.462;10.846;2023-07-02T04:05:15;99760;;;
74485;BMP280;62942;52.462;10.846;2023-07-02T04:06:15;99750;;;
74485;BMP280;62942;52.462;10.846;2023-07-02T04:07:25;99770;;;
74485;BMP280;62942;52.462;10.846;2023-07-02T04:08:35;99770;;;
74485;BMP280;62942;52.462;10.846;2023-07-02T04:09:35;99760;;;
74485;BMP280;62942;52.462;10.846;2023-07-02T04:10:35;99760;;;
74485;BMP280;62942;52.462;10.846;2023-07-02T04:11:45;99760;;;
74485;BMP280;62942;52.462;10.846;2023-07-02T04:12:45;99760;;;
74485;BMP280;62942;52.462;10.846;2023-07-02T04:13:55;99760;;;
74485;BMP280;62942;52.462;10.846;2023-07-02T04:15:05;99770;;;
74485;BMP280;62942;52.462;10.846;2023-07-02T04:16:15;99770;;;
74485;BMP280;62942;52.462;10.846;2023-07-02T04:17:25;99770;;;
74485;BMP280;62942;52.462;10.846;2023-07-02T04:18:35;99770;;;
74485;BMP280;62942;52.462;10.846;2023-07-02T04:19:35;99770;;;
74485;BMP280;62942;52.462;10.846;2023-07-02T04:20:45;99770;;;
74485;BMP280;62942;52.462;10.846;2023-07-02T04:21:55;99770;;;
74485;BMP280;62942;52.462;10.846;2023-07-02T04:23:05;99780;;;
74485;BMP280;62942;52.462;10.846;2023-07-02T04:24:15;99770;;;
74485;BMP280;62942;52.462;10.846;2023-07-02T04:25:15;99770;;;
74485;BMP280;62942;52.462;10.846;2023-07-02T04:26:25;99770;;;
74485;BMP280;62942;52.462;10.846;2023-07-02T04:27:35;99770;;;
74485;BMP280;62942;52.462;10.846;2023-07-02T04:28:45;99780;;;
74485;BMP280;62942;52.462;10.846;2023-07-02T04:29:45;99780;;;
74485;BMP280;62942;52.462;10.846;2023-07-02T04:30:55;99780;;;
74485;BMP280;62942;52.462;10.846;2023-07-02T04:31:55;99780;;;
74485;BMP280;62942;52.462;10.846;2023-07-02T04:33:05;99770;;;
74485;BMP280;62942;52.462;10.846;2023-07-02T04:34:15;99770;;;
74485;BMP280;62942;52.462;10.846;2023-07-02T04:35:15;99770;;;
74485;BMP280;62942;52.462;10.846;2023-07-02T04:36:25;99770;;;
74485;BMP280;62942;52.462;10.846;2023-07-02T04:37:25;99760;;;
74485;BMP280;62942;52.462;10.846;2023-07-02T04:38:25;99760;;;
74485;BMP280;62942;52.462;10.846;2023-07-02T04:39:25;99760;;;
74485;BMP280;62942;52.462;10.846;2023-07-02T04:40:35;99760;;;
74485;BMP280;62942;52.462;10.846;2023-07-02T04:41:45;99760;;;
74485;BMP280;62942;52.462;10.846;2023-07-02T04:42:55;99760;;;
74485;BMP280;62942;52.462;10.846;2023-07-02T04:44:05;99770;;;
74485;BMP280;62942;52.462;10.846;2023-07-02T04:45:05;99770;;;
74485;BMP280;62942;52.462;10.846;2023-07-02T04:46:15;99770;;;
74485;BMP280;62942;52.462;10.846;2023-07-02T04:47:25;99760;;;
74485;BMP280;62942;52.462;10.846;2023-07-02T04:48:25;99770;;;
74485;BMP280;62942;52.462;10.846;2023-07-02T04:49:35;99770;;;
74485;BMP280;62942;52.462;10.846;2023-07-02T04:50:45;99770;;;
74485;BMP280;62942;52.462;10.846;2023-07-02T04:51:55;99780;;;
74485;BMP280;62942;52.462;10.846;2023-07-02T04:53:05;99780;;;
74485;BMP280;62942;52.462;10.846;2023-07-02T04:54:15;99790;;;
74485;BMP280;62942;52.462;10.846;2023-07-02T04:55:25;99790;;;
74485;BMP280;62942;52.462;10.846;2023-07-02T04:56:35;99790;;;
74485;BMP280;62942;52.462;10.846;2023-07-02T04:57:35;99790;;;
74485;BMP280;62942;52.462;10.846;2023-07-02T04:58:45;99780;;;
74485;BMP280;62942;52.462;10.846;2023-07-02T04:59:55;99780;;;
74485;BMP280;62942;52.462;10.846;2023-07-02T05:01:05;99780;;;
74485;BMP280;62942;52.462;10.846;2023-07-02T05:02:15;99780;;;
74485;BMP280;62942;52.462;10.846;2023-07-02T05:03:25;99790;;;
74485;BMP280;62942;52.462;10.846;2023-07-02T05:04:35;99790;;;
74485;BMP280;62942;52.462;10.846;2023-07-02T05:05:35;99790;;;
74485;BMP280;62942;52.462;10.846;2023-07-02T05:06:45;99800;;;
74485;BMP280;62942;52.462;10.846;2023-07-02T05:07:55;99800;;;
74485;BMP280;62942;52.462;10.846;2023-07-02T05:09:05;99790;;;
74485;BMP280;62942;52.462;10.846;2023-07-02T05:10:05;99790;;;
74485;BMP280;62942;52.462;10.846;2023-07-02T05:11:15;99780;;;
74485;BMP280;62942;52.462;10.846;2023-07-02T05:12:25;99780;;;
74485;BMP280;62942;52.462;10.846;2023-07-02T05:13:35;99780;;;
74485;BMP280;62942;52.462;10.846;2023-07-02T05:14:45;99790;;;
74485;BMP280;62942;52.462;10.846;2023-07-02T05:15:55;99790;;;
74485;BMP280;62942;52.462;10.846;2023-07-02T05:17:05;99790;;;
74485;BMP280;62942;52.462;10.846;2023-07-02T05:18:15;99780;;;
74485;BMP280;62942;52.462;10.846;2023-07-02T05:19:25;99780;;;
74485;BMP280;62942;52.462;10.846;2023-07-02T05:20:35;99780;;;
74485;BMP280;62942;52.462;10.846;2023-07-02T05:21:45;99780;;;
74485;BMP280;62942;52.462;10.846;2023-07-02T05:22:45;99770;;;
74485;BMP280;62942;52.462;10.846;2023-07-02T05:23:55;99760;;;
74485;BMP280;62942;52.462;10.846;2023-07-02T05:25:05;99770;;;
74485;BMP280;62942;52.462;10.846;2023-07-02T05:26:05;99770;;;
74485;BMP280;62942;52.462;10.846;2023-07-02T05:27:15;99770;;;
74485;BMP280;62942;52.462;10.846;2023-07-02T05:28:26;99770;;;
74485;BMP280;62942;52.462;10.846;2023-07-02T05:29:35;99760;;;
74485;BMP280;62942;52.462;10.846;2023-07-02T05:30:45;99770;;;
74485;BMP280;62942;52.462;10.846;2023-07-02T05:31:55;99760;;;
74485;BMP280;62942;52.462;10.846;2023-07-02T05:32:55;99770;;;
74485;BMP280;62942;52.462;10.846;2023-07-02T05:34:05;99770;;;
74485;BMP280;62942;52.462;10.846;2023-07-02T05:35:15;99760;;;
74485;BMP280;62942;52.462;10.846;2023-07-02T05:36:15;99760;;;
74485;BMP280;62942;52.462;10.846;2023-07-02T05:37:15;99760;;;
74485;BMP280;62942;52.462;10.846;2023-07-02T05:38:25;99760;;;
74485;BMP280;62942;52.462;10.846;2023-07-02T05:39:35;99760;;;
74485;BMP280;62942;52.462;10.846;2023-07-02T05:40:45;99760;;;
74485;BMP280;62942;52.462;10.846;2023-07-02T05:41:55;99770;;;
74485;BMP280;62942;52.462;10.846;2023-07-02T05:43:05;99770;;;
74485;BMP280;62942;52.462;10.846;2023-07-02T05:44:15;99760;;;
74485;BMP280;62942;52.462;10.846;2023-07-02T05:45:25;99770;;;
74485;BMP280;62942;52.462;10.846;2023-07-02T05:46:25;99770;;;
74485;BMP280;62942;52.462;10.846;2023-07-02T05:47:35;99770;;;
74485;BMP280;62942;52.462;10.846;2023-07-02T05:48:35;99780;;;
74485;BMP280;62942;52.462;10.846;2023-07-02T05:49:45;99780;;;
74485;BMP280;62942;52.462;10.846;2023-07-02T05:50:55;99780;;;
74485;BMP280;62942;52.462;10.846;2023-07-02T05:51:55;99780;;;
74485;BMP280;62942;52.462;10.846;2023-07-02T05:53:05;99780;;;
74485;BMP280;62942;52.462;10.846;2023-07-02T05:54:06;99780;;;
74485;BMP280;62942;52.462;10.846;2023-07-02T05:55:15;99790;;;
74485;BMP280;62942;52.462;10.846;2023-07-02T05:56:15;99790;;;
74485;BMP280;62942;52.462;10.846;2023-07-02T05:57:15;99790;;;
74485;BMP280;62942;52.462;10.846;2023-07-02T05:58:15;99780;;;
74485;BMP280;62942;52.462;10.846;2023-07-02T05:59:25;99790;;;
74485;BMP280;62942;52.462;10.846;2023-07-02T06:00:35;99780;;;
74485;BMP280;62942;52.462;10.846;2023-07-02T06:01:45;99780;;;
74485;BMP280;62942;52.462;10.846;2023-07-02T06:02:46;99780;;;
74485;BMP280;62942;52.462;10.846;2023-07-02T06:03:45;99780;;;
74485;BMP280;62942;52.462;10.846;2023-07-02T06:04:55;99780;;;
74485;BMP280;62942;52.462;10.846;2023-07-02T06:06:05;99780;;;
74485;BMP280;62942;52.462;10.846;2023-07-02T06:07:05;99780;;;
74485;BMP280;62942;52.462;10.846;2023-07-02T06:08:05;99780;;;
74485;BMP280;62942;52.462;10.846;2023-07-02T06:09:05;99780;;;
74485;BMP280;62942;52.462;10.846;2023-07-02T06:10:15;99780;;;
74485;BMP280;62942;52.462;10.846;2023-07-02T06:11:15;99780;;;
74485;BMP280;62942;52.462;10.846;2023-07-02T06:12:25;99790;;;
74485;BMP280;62942;52.462;10.846;2023-07-02T06:13:25;99790;;;
74485;BMP280;62942;52.462;10.846;2023-07-02T06:14:25;99790;;;
74485;BMP280;62942;52.462;10.846;2023-07-02T06:15:35;99790;;;
74485;BMP280;62942;52.462;10.846;2023-07-02T06:16:35;99790;;;
74485;BMP280;62942;52.462;10.846;2023-07-02T06:17:35;99790;;;
74485;BMP280;62942;52.462;10.846;2023-07-02T06:18:45;99790;;;
74485;BMP280;62942;52.462;10.846;2023-07-02T06:19:55;99790;;;
74485;BMP280;62942;52.462;10.846;2023-07-02T06:21:05;99790;;;
74485;BMP280;62942;52.462;10.846;2023-07-02T06:22:15;99790;;;
74485;BMP280;62942;52.462;10.846;2023-07-02T06:23:15;99800;;;
74485;BMP280;62942;52.462;10.846;2023-07-02T06:24:15;99790;;;
74485;BMP280;62942;52.462;10.846;2023-07-02T06:25:25;99790;;;
74485;BMP280;62942;52.462;10.846;2023-07-02T06:26:35;99790;;;
74485;BMP280;62942;52.462;10.846;2023-07-02T06:27:45;99800;;;
74485;BMP280;62942;52.462;10.846;2023-07-02T06:28:55;99790;;;
74485;BMP280;62942;52.462;10.846;2023-07-02T06:30:05;99800;;;
74485;BMP280;62942;52.462;10.846;2023-07-02T06:31:15;99800;;;
74485;BMP280;62942;52.462;10.846;2023-07-02T06:32:25;99800;;;
74485;BMP280;62942;52.462;10.846;2023-07-02T06:33:37;99800;;;
74485;BMP280;62942;52.462;10.846;2023-07-02T06:34:45;99800;;;
74485;BMP280;62942;52.462;10.846;2023-07-02T06:35:55;99790;;;
74485;BMP280;62942;52.462;10.846;2023-07-02T06:36:55;99800;;;
74485;BMP280;62942;52.462;10.846;2023-07-02T06:38:05;99800;;;
74485;BMP280;62942;52.462;10.846;2023-07-02T06:39:15;99800;;;
74485;BMP280;62942;52.462;10.846;2023-07-02T06:40:25;99800;;;
74485;BMP280;62942;52.462;10.846;2023-07-02T06:41:35;99800;;;
74485;BMP280;62942;52.462;10.846;2023-07-02T06:42:45;99800;;;
74485;BMP280;62942;52.462;10.846;2023-07-02T06:43:45;99800;;;
74485;BMP280;62942;52.462;10.846;2023-07-02T06:44:55;99800;;;
74485;BMP280;62942;52.462;10.846;2023-07-02T06:45:55;99800;;;
74485;BMP280;62942;52.462;10.846;2023-07-02T06:47:05;99800;;;
74485;BMP280;62942;52.462;10.846;2023-07-02T06:48:05;99810;;;
74485;BMP280;62942;52.462;10.846;2023-07-02T06:49:15;99810;;;
74485;BMP280;62942;52.462;10.846;2023-07-02T06:50:25;99810;;;
74485;BMP280;62942;52.462;10.846;2023-07-02T06:51:25;99810;;;
74485;BMP280;62942;52.462;10.846;2023-07-02T06:52:35;99810;;;
74485;BMP280;62942;52.462;10.846;2023-07-02T06:53:35;99810;;;
74485;BMP280;62942;52.462;10.846;2023-07-02T06:54:45;99810;;;
74485;BMP280;62942;52.462;10.846;2023-07-02T06:55:55;99810;;;
74485;BMP280;62942;52.462;10.846;2023-07-02T06:56:55;99810;;;
74485;BMP280;62942;52.462;10.846;2023-07-02T06:58:05;99810;;;
74485;BMP280;62942;52.462;10.846;2023-07-02T06:59:05;99810;;;
74485;BMP280;62942;52.462;10.846;2023-07-02T07:00:15;99820;;;
74485;BMP280;62942;52.462;10.846;2023-07-02T07:01:15;99820;;;
74485;BMP280;62942;52.462;10.846;2023-07-02T07:02:25;99820;;;
74485;BMP280;62942;52.462;10.846;2023-07-02T07:03:35;99820;;;